createdAt,value
2022-12-20T00:03:29.402Z,101627.53
2022-12-20T00:08:36.158Z,101623.22
2022-12-20T00:13:41.898Z,101624.88
2022-12-20T00:18:46.601Z,101610.28
2022-12-20T00:23:52.691Z,101611.97
2022-12-20T00:28:58.160Z,101608.50
2022-12-20T00:34:03.650Z,101623.81
2022-12-20T00:39:08.186Z,101609.25
2022-12-20T00:44:12.817Z,101601.50
2022-12-20T00:49:17.798Z,101597.16
2022-12-20T00:54:22.403Z,101609.91
2022-12-20T00:59:28.343Z,101600.41
2022-12-20T01:11:38.524Z,101612.16
2022-12-20T01:16:49.434Z,101595.78
2022-12-20T01:21:54.313Z,101585.34
2022-12-20T01:26:59.175Z,101617.75
2022-12-20T01:32:05.660Z,101625.28
2022-12-20T01:37:12.367Z,101609.75
2022-12-20T01:42:17.672Z,101588.22
2022-12-20T01:47:23.321Z,101582.94
2022-12-20T01:52:38.764Z,101582.84
2022-12-20T01:57:54.823Z,101569.88
2022-12-20T02:03:12.434Z,101567.19
2022-12-20T02:08:21.309Z,101552.47
2022-12-20T02:13:39.924Z,101547.19
2022-12-20T02:18:56.138Z,101565.78
2022-12-20T02:24:19.148Z,101516.53
2022-12-20T02:29:38.820Z,101509.34
2022-12-20T02:34:44.555Z,101506.34
2022-12-20T02:39:50.459Z,101485.34
2022-12-20T02:45:20.173Z,101470.34
2022-12-20T02:50:42.070Z,101463.06
2022-12-20T02:56:16.829Z,101454.84
2022-12-20T03:01:36.496Z,101453.47
2022-12-20T03:06:56.731Z,101474.47
2022-12-20T03:12:02.178Z,101423.97
2022-12-20T03:17:11.636Z,101405.00
2022-12-20T03:22:17.498Z,101382.59
2022-12-20T03:27:22.705Z,101360.84
2022-12-20T03:32:28.292Z,101362.53
2022-12-20T03:37:33.623Z,101342.41
2022-12-20T03:42:41.270Z,101330.16
2022-12-20T03:47:46.566Z,101291.97
2022-12-20T03:52:52.060Z,101294.34
2022-12-20T03:57:59.414Z,101286.31
2022-12-20T04:03:15.643Z,101265.34
2022-12-20T04:08:21.582Z,101259.16
2022-12-20T04:13:28.294Z,101266.41
2022-12-20T04:18:34.181Z,101215.09
2022-12-20T04:23:40.802Z,101201.88
2022-12-20T04:28:50.473Z,101199.84
2022-12-20T04:33:57.226Z,101192.56
2022-12-20T04:39:02.689Z,101222.78
2022-12-20T04:44:14.990Z,101168.22
2022-12-20T04:49:20.625Z,101163.81
2022-12-20T04:54:28.509Z,101161.81
2022-12-20T04:59:37.693Z,101144.88
2022-12-20T05:04:42.652Z,101149.88
2022-12-20T05:09:47.982Z,101122.81
2022-12-20T05:14:53.164Z,101104.41
2022-12-20T05:19:59.921Z,101091.28
2022-12-20T05:25:26.135Z,101074.34
2022-12-20T09:51:27.261Z,100920.09
2022-12-20T09:56:39.573Z,100927.13
2022-12-20T10:01:51.917Z,100915.28
2022-12-20T10:06:57.138Z,100923.16
2022-12-20T10:12:26.877Z,100923.28
2022-12-20T10:17:49.705Z,100937.28
2022-12-20T10:23:11.565Z,100942.69
2022-12-20T10:28:19.325Z,101002.31
2022-12-20T10:33:26.459Z,100950.84
2022-12-20T10:38:47.077Z,100956.91
2022-12-20T10:44:17.862Z,100952.78
2022-12-20T10:49:38.360Z,100944.41
2022-12-20T10:54:43.774Z,100953.16
2022-12-20T11:00:03.388Z,100962.03
2022-12-20T11:05:13.914Z,100966.50
2022-12-20T11:10:29.638Z,101047.53
2022-12-20T11:15:37.996Z,100982.22
2022-12-20T11:21:16.032Z,100993.53
2022-12-20T11:26:37.031Z,100999.56
2022-12-20T11:31:51.481Z,101019.19
2022-12-20T11:37:02.294Z,101005.94
2022-12-20T11:42:12.570Z,101006.66
2022-12-20T11:47:41.714Z,101001.31
2022-12-20T11:52:54.373Z,101025.19
2022-12-20T11:58:19.609Z,101046.53
2022-12-20T12:03:34.789Z,101070.84
2022-12-20T12:09:24.797Z,101072.31
2022-12-20T12:14:47.515Z,101087.19
2022-12-20T12:19:55.864Z,101124.31
2022-12-20T12:25:06.187Z,101079.44
2022-12-20T12:30:16.261Z,101112.84
2022-12-20T12:35:49.158Z,101070.00
2022-12-20T12:41:12.711Z,101074.94
2022-12-20T12:46:38.817Z,101062.97
2022-12-20T12:51:51.591Z,101087.53
2022-12-20T12:57:04.725Z,101089.03
2022-12-20T13:02:18.288Z,101090.09
2022-12-20T13:07:34.268Z,101087.16
2022-12-20T13:12:39.749Z,101092.88
2022-12-20T13:18:24.664Z,101120.22
2022-12-20T13:23:29.992Z,101109.75
2022-12-20T13:28:35.221Z,101109.91
2022-12-20T13:33:52.823Z,101128.16
2022-12-20T13:39:02.435Z,101119.84
2022-12-20T13:44:23.252Z,101128.75
2022-12-20T13:49:55.087Z,101133.28
2022-12-20T13:55:18.023Z,101135.19
2022-12-20T14:00:28.565Z,101156.81
2022-12-20T14:05:39.244Z,101164.78
2022-12-20T14:10:44.622Z,101173.56
2022-12-20T14:15:50.073Z,101177.16
2022-12-20T14:21:03.693Z,101178.31
2022-12-20T14:26:32.769Z,101171.47
2022-12-20T14:31:43.214Z,101186.34
2022-12-20T14:36:50.628Z,101190.69
2022-12-20T14:42:00.484Z,101192.69
2022-12-20T14:47:43.945Z,101192.91
2022-12-20T14:52:51.309Z,101203.44
2022-12-20T14:58:00.375Z,101206.44
2022-12-20T15:03:24.210Z,101198.34
2022-12-20T15:08:36.947Z,101194.06
2022-12-20T15:13:44.588Z,101201.94
2022-12-20T15:18:55.113Z,101208.91
2022-12-20T15:24:03.721Z,101201.97
2022-12-20T15:29:09.106Z,101204.56
2022-12-20T15:34:26.919Z,101215.94
2022-12-20T15:39:32.536Z,101217.66
2022-12-20T15:44:40.037Z,101210.13
2022-12-20T15:49:49.740Z,101229.16
2022-12-20T15:54:55.241Z,101220.00
2022-12-20T16:00:02.696Z,101224.50
2022-12-20T16:05:17.584Z,101238.16
2022-12-20T16:10:23.678Z,101233.03
2022-12-20T16:15:28.904Z,101211.00
2022-12-20T16:20:34.873Z,101209.38
2022-12-20T16:25:39.771Z,101214.72
2022-12-20T16:30:50.948Z,101207.22
2022-12-20T16:35:57.837Z,101212.53
2022-12-20T16:41:16.825Z,101203.63
2022-12-20T16:46:22.262Z,101204.47
2022-12-20T16:51:29.692Z,101205.34
2022-12-20T16:56:34.789Z,101196.31
2022-12-20T17:01:45.891Z,101183.59
2022-12-20T17:06:51.242Z,101191.25
2022-12-20T17:11:56.099Z,101179.41
2022-12-20T17:17:00.735Z,101176.91
2022-12-20T17:27:26.549Z,101171.22
2022-12-20T17:32:31.137Z,101162.69
2022-12-20T17:37:36.452Z,101214.56
2022-12-20T17:42:41.086Z,101176.03
2022-12-20T17:47:45.632Z,101183.72
2022-12-20T17:52:50.560Z,101181.22
2022-12-20T17:57:56.584Z,101274.28
2022-12-20T18:03:01.406Z,101241.88
2022-12-20T18:08:06.197Z,101211.84
2022-12-20T18:13:10.980Z,101207.06
2022-12-20T18:18:15.622Z,101221.72
2022-12-20T18:23:21.348Z,101211.34
2022-12-20T18:28:25.915Z,101210.63
2022-12-20T18:33:30.926Z,101218.28
2022-12-20T18:38:39.642Z,101215.78
2022-12-20T18:43:44.876Z,101220.94
2022-12-20T18:48:51.829Z,101232.06
2022-12-20T18:53:58.579Z,101226.75
2022-12-20T18:59:11.271Z,101218.16
2022-12-20T19:04:22.430Z,101220.84
2022-12-20T19:09:29.089Z,101204.72
2022-12-20T19:14:33.799Z,101210.72
2022-12-20T19:19:38.435Z,101201.41
2022-12-20T19:24:43.603Z,101196.66
2022-12-20T19:29:48.737Z,101192.72
2022-12-20T19:34:53.339Z,101193.09
2022-12-20T19:39:57.952Z,101180.59
2022-12-20T19:45:03.438Z,101189.34
2022-12-20T19:50:09.830Z,101172.34
2022-12-20T19:55:14.626Z,101189.69
2022-12-20T20:00:19.474Z,101175.22
2022-12-20T20:05:24.149Z,101181.22
2022-12-20T20:10:28.798Z,101176.97
2022-12-20T20:15:34.004Z,101157.09
2022-12-20T20:20:42.248Z,101157.09
2022-12-20T20:25:52.687Z,101149.44
2022-12-20T20:30:57.327Z,101134.13
2022-12-20T20:36:03.352Z,101121.56
2022-12-20T20:41:08.040Z,101122.78
2022-12-20T20:46:16.038Z,101111.13
2022-12-20T20:51:20.749Z,101113.91
2022-12-20T20:56:25.389Z,101102.81
2022-12-20T21:01:30.048Z,101101.88
2022-12-20T21:06:40.936Z,101092.47
2022-12-20T21:11:46.566Z,101093.25
2022-12-20T21:16:51.224Z,101075.06
2022-12-20T21:21:55.898Z,101063.03
2022-12-20T21:27:00.524Z,101076.91
2022-12-20T21:32:05.133Z,101063.28
2022-12-20T21:37:09.728Z,101071.13
2022-12-20T21:42:14.452Z,101067.06
2022-12-20T21:47:19.095Z,101109.38
2022-12-20T21:52:24.014Z,101067.75
2022-12-20T21:57:28.617Z,101074.81
2022-12-20T22:02:33.298Z,101073.28
2022-12-20T22:07:37.943Z,101064.09
2022-12-20T22:12:42.490Z,101072.84
2022-12-20T22:17:46.491Z,101060.09
2022-12-20T22:22:51.057Z,101068.63
2022-12-20T22:27:55.902Z,101073.59
2022-12-20T22:33:01.771Z,101068.41
2022-12-20T22:38:06.357Z,101061.44
2022-12-20T22:43:11.168Z,101060.53
2022-12-20T22:48:15.725Z,101052.75
2022-12-20T22:53:20.332Z,101039.84
2022-12-20T22:58:24.897Z,101049.41
2022-12-20T23:03:31.577Z,101039.28
2022-12-20T23:08:38.863Z,101042.91
2022-12-20T23:14:01.465Z,101034.69
2022-12-20T23:19:06.047Z,101050.34
2022-12-20T23:24:11.503Z,101053.16
2022-12-20T23:29:16.160Z,101062.81
2022-12-20T23:34:21.277Z,101051.00
2022-12-20T23:39:25.796Z,101053.69
2022-12-20T23:44:31.382Z,101062.22
2022-12-20T23:49:35.971Z,101098.94
2022-12-20T23:54:41.168Z,101094.53
2022-12-20T23:59:45.741Z,101056.59
